sensor_id;sensor_type;location;lat;lon;timestamp;P1;durP1;ratioP1;P2;durP2;ratioP2
10471;SDS011;5283;48.876;8.962;2022-10-19T00:02:19;17.50;;;11.37;;
10471;SDS011;5283;48.876;8.962;2022-10-19T00:04:46;19.80;;;11.60;;
10471;SDS011;5283;48.876;8.962;2022-10-19T00:07:12;24.73;;;13.10;;
10471;SDS011;5283;48.876;8.962;2022-10-19T00:09:39;24.93;;;13.87;;
10471;SDS011;5283;48.876;8.962;2022-10-19T00:12:09;22.37;;;13.77;;
10471;SDS011;5283;48.876;8.962;2022-10-19T00:14:35;23.70;;;14.93;;
10471;SDS011;5283;48.876;8.962;2022-10-19T00:17:02;25.13;;;14.97;;
10471;SDS011;5283;48.876;8.962;2022-10-19T00:19:28;30.30;;;16.73;;
10471;SDS011;5283;48.876;8.962;2022-10-19T00:21:55;24.13;;;15.60;;
10471;SDS011;5283;48.876;8.962;2022-10-19T00:24:22;25.90;;;16.30;;
10471;SDS011;5283;48.876;8.962;2022-10-19T00:26:48;32.17;;;16.40;;
10471;SDS011;5283;48.876;8.962;2022-10-19T00:29:15;31.93;;;15.90;;
10471;SDS011;5283;48.876;8.962;2022-10-19T00:31:42;26.50;;;16.60;;
10471;SDS011;5283;48.876;8.962;2022-10-19T00:34:09;25.30;;;16.13;;
10471;SDS011;5283;48.876;8.962;2022-10-19T00:36:37;26.10;;;16.23;;
10471;SDS011;5283;48.876;8.962;2022-10-19T00:39:06;26.33;;;16.37;;
10471;SDS011;5283;48.876;8.962;2022-10-19T00:41:36;25.23;;;15.67;;
10471;SDS011;5283;48.876;8.962;2022-10-19T00:44:05;34.83;;;15.70;;
10471;SDS011;5283;48.876;8.962;2022-10-19T00:46:52;25.97;;;15.43;;
10471;SDS011;5283;48.876;8.962;2022-10-19T00:49:20;26.67;;;15.00;;
10471;SDS011;5283;48.876;8.962;2022-10-19T00:51:50;22.07;;;14.00;;
10471;SDS011;5283;48.876;8.962;2022-10-19T00:54:19;25.87;;;15.07;;
10471;SDS011;5283;48.876;8.962;2022-10-19T00:56:47;20.10;;;13.73;;
10471;SDS011;5283;48.876;8.962;2022-10-19T00:59:18;25.87;;;15.10;;
10471;SDS011;5283;48.876;8.962;2022-10-19T01:01:46;20.90;;;14.83;;
10471;SDS011;5283;48.876;8.962;2022-10-19T01:04:14;21.93;;;15.00;;
10471;SDS011;5283;48.876;8.962;2022-10-19T01:06:41;26.87;;;16.00;;
10471;SDS011;5283;48.876;8.962;2022-10-19T01:09:08;29.27;;;15.87;;
10471;SDS011;5283;48.876;8.962;2022-10-19T01:11:55;29.03;;;16.10;;
10471;SDS011;5283;48.876;8.962;2022-10-19T01:22:52;31.83;;;17.80;;
10471;SDS011;5283;48.876;8.962;2022-10-19T01:34:45;28.47;;;17.17;;
10471;SDS011;5283;48.876;8.962;2022-10-19T01:37:16;27.30;;;16.47;;
10471;SDS011;5283;48.876;8.962;2022-10-19T01:39:58;24.10;;;14.53;;
10471;SDS011;5283;48.876;8.962;2022-10-19T01:47:52;26.37;;;15.53;;
10471;SDS011;5283;48.876;8.962;2022-10-19T01:50:24;31.13;;;16.53;;
10471;SDS011;5283;48.876;8.962;2022-10-19T01:52:56;24.60;;;15.30;;
10471;SDS011;5283;48.876;8.962;2022-10-19T01:55:24;25.37;;;14.97;;
10471;SDS011;5283;48.876;8.962;2022-10-19T01:58:02;26.00;;;16.63;;
10471;SDS011;5283;48.876;8.962;2022-10-19T02:00:32;25.17;;;15.57;;
10471;SDS011;5283;48.876;8.962;2022-10-19T02:03:02;29.87;;;15.93;;
10471;SDS011;5283;48.876;8.962;2022-10-19T02:05:30;25.50;;;15.80;;
10471;SDS011;5283;48.876;8.962;2022-10-19T02:08:00;29.67;;;16.27;;
10471;SDS011;5283;48.876;8.962;2022-10-19T02:10:31;27.47;;;14.77;;
10471;SDS011;5283;48.876;8.962;2022-10-19T02:13:02;27.47;;;15.37;;
10471;SDS011;5283;48.876;8.962;2022-10-19T02:15:31;25.27;;;14.77;;
10471;SDS011;5283;48.876;8.962;2022-10-19T02:18:00;28.43;;;15.13;;
10471;SDS011;5283;48.876;8.962;2022-10-19T02:20:28;30.83;;;15.13;;
10471;SDS011;5283;48.876;8.962;2022-10-19T02:22:55;53.83;;;18.13;;
10471;SDS011;5283;48.876;8.962;2022-10-19T02:25:22;53.40;;;17.83;;
10471;SDS011;5283;48.876;8.962;2022-10-19T02:27:50;49.80;;;18.90;;
10471;SDS011;5283;48.876;8.962;2022-10-19T02:30:17;50.33;;;17.97;;
10471;SDS011;5283;48.876;8.962;2022-10-19T02:32:46;60.30;;;19.77;;
10471;SDS011;5283;48.876;8.962;2022-10-19T02:35:14;66.10;;;18.43;;
10471;SDS011;5283;48.876;8.962;2022-10-19T02:37:41;78.47;;;20.20;;
10471;SDS011;5283;48.876;8.962;2022-10-19T02:40:08;76.40;;;20.70;;
10471;SDS011;5283;48.876;8.962;2022-10-19T02:42:40;106.10;;;21.90;;
10471;SDS011;5283;48.876;8.962;2022-10-19T02:45:21;94.97;;;20.63;;
10471;SDS011;5283;48.876;8.962;2022-10-19T02:48:03;106.83;;;22.50;;
10471;SDS011;5283;48.876;8.962;2022-10-19T02:50:33;101.87;;;21.33;;
10471;SDS011;5283;48.876;8.962;2022-10-19T02:53:00;99.10;;;21.57;;
10471;SDS011;5283;48.876;8.962;2022-10-19T02:55:28;104.97;;;21.27;;
10471;SDS011;5283;48.876;8.962;2022-10-19T02:57:55;131.97;;;21.63;;
10471;SDS011;5283;48.876;8.962;2022-10-19T03:00:22;113.33;;;22.40;;
10471;SDS011;5283;48.876;8.962;2022-10-19T03:02:49;166.87;;;24.53;;
10471;SDS011;5283;48.876;8.962;2022-10-19T03:05:15;67.90;;;23.40;;
10471;SDS011;5283;48.876;8.962;2022-10-19T03:07:42;72.90;;;23.27;;
10471;SDS011;5283;48.876;8.962;2022-10-19T03:10:09;65.83;;;24.53;;
10471;SDS011;5283;48.876;8.962;2022-10-19T03:12:35;71.17;;;24.77;;
10471;SDS011;5283;48.876;8.962;2022-10-19T03:15:02;101.00;;;28.03;;
10471;SDS011;5283;48.876;8.962;2022-10-19T03:17:29;85.73;;;27.37;;
10471;SDS011;5283;48.876;8.962;2022-10-19T03:19:56;96.17;;;26.77;;
10471;SDS011;5283;48.876;8.962;2022-10-19T03:22:23;88.97;;;28.23;;
10471;SDS011;5283;48.876;8.962;2022-10-19T03:24:49;101.53;;;30.13;;
10471;SDS011;5283;48.876;8.962;2022-10-19T03:27:16;90.07;;;27.93;;
10471;SDS011;5283;48.876;8.962;2022-10-19T03:29:43;76.93;;;25.73;;
10471;SDS011;5283;48.876;8.962;2022-10-19T03:32:09;67.43;;;25.67;;
10471;SDS011;5283;48.876;8.962;2022-10-19T03:34:36;73.27;;;23.80;;
10471;SDS011;5283;48.876;8.962;2022-10-19T03:37:03;72.40;;;24.60;;
10471;SDS011;5283;48.876;8.962;2022-10-19T03:39:29;73.37;;;24.83;;
10471;SDS011;5283;48.876;8.962;2022-10-19T03:41:56;89.03;;;25.57;;
10471;SDS011;5283;48.876;8.962;2022-10-19T03:44:23;87.50;;;27.33;;
10471;SDS011;5283;48.876;8.962;2022-10-19T03:46:49;95.77;;;28.83;;
10471;SDS011;5283;48.876;8.962;2022-10-19T03:49:16;90.90;;;27.20;;
10471;SDS011;5283;48.876;8.962;2022-10-19T03:51:43;91.17;;;27.50;;
10471;SDS011;5283;48.876;8.962;2022-10-19T03:54:13;88.70;;;27.40;;
10471;SDS011;5283;48.876;8.962;2022-10-19T03:56:41;91.57;;;27.93;;
10471;SDS011;5283;48.876;8.962;2022-10-19T03:59:12;98.77;;;29.63;;
10471;SDS011;5283;48.876;8.962;2022-10-19T04:01:41;86.03;;;26.17;;
10471;SDS011;5283;48.876;8.962;2022-10-19T04:04:14;85.87;;;26.27;;
10471;SDS011;5283;48.876;8.962;2022-10-19T04:06:44;98.07;;;28.70;;
10471;SDS011;5283;48.876;8.962;2022-10-19T04:09:14;77.03;;;24.17;;
10471;SDS011;5283;48.876;8.962;2022-10-19T04:11:42;92.10;;;24.73;;
10471;SDS011;5283;48.876;8.962;2022-10-19T04:14:09;88.00;;;26.50;;
10471;SDS011;5283;48.876;8.962;2022-10-19T04:16:38;85.73;;;26.93;;
10471;SDS011;5283;48.876;8.962;2022-10-19T04:19:05;78.13;;;26.43;;
10471;SDS011;5283;48.876;8.962;2022-10-19T04:21:32;76.53;;;26.57;;
10471;SDS011;5283;48.876;8.962;2022-10-19T04:24:08;77.10;;;26.43;;
10471;SDS011;5283;48.876;8.962;2022-10-19T04:26:39;75.43;;;26.87;;
10471;SDS011;5283;48.876;8.962;2022-10-19T04:29:07;77.07;;;26.10;;
10471;SDS011;5283;48.876;8.962;2022-10-19T04:31:35;83.40;;;27.07;;
10471;SDS011;5283;48.876;8.962;2022-10-19T04:34:03;68.77;;;24.90;;
10471;SDS011;5283;48.876;8.962;2022-10-19T04:36:31;71.10;;;24.27;;
10471;SDS011;5283;48.876;8.962;2022-10-19T04:38:57;67.97;;;25.33;;
10471;SDS011;5283;48.876;8.962;2022-10-19T04:41:24;71.57;;;24.93;;
10471;SDS011;5283;48.876;8.962;2022-10-19T04:43:56;75.70;;;24.67;;
10471;SDS011;5283;48.876;8.962;2022-10-19T04:46:24;79.20;;;26.77;;
10471;SDS011;5283;48.876;8.962;2022-10-19T04:48:51;87.97;;;29.83;;
10471;SDS011;5283;48.876;8.962;2022-10-19T04:51:19;105.50;;;29.93;;
10471;SDS011;5283;48.876;8.962;2022-10-19T04:53:47;110.47;;;32.93;;
10471;SDS011;5283;48.876;8.962;2022-10-19T04:56:18;117.17;;;32.47;;
10471;SDS011;5283;48.876;8.962;2022-10-19T04:58:47;150.07;;;33.50;;
10471;SDS011;5283;48.876;8.962;2022-10-19T05:03:42;142.47;;;35.03;;
10471;SDS011;5283;48.876;8.962;2022-10-19T05:06:09;190.17;;;36.90;;
10471;SDS011;5283;48.876;8.962;2022-10-19T05:08:36;121.83;;;33.90;;
10471;SDS011;5283;48.876;8.962;2022-10-19T05:11:04;113.43;;;34.13;;
10471;SDS011;5283;48.876;8.962;2022-10-19T05:13:35;105.73;;;31.83;;
10471;SDS011;5283;48.876;8.962;2022-10-19T05:16:03;103.07;;;31.07;;
10471;SDS011;5283;48.876;8.962;2022-10-19T05:18:32;104.00;;;33.13;;
10471;SDS011;5283;48.876;8.962;2022-10-19T05:21:00;118.17;;;32.17;;
10471;SDS011;5283;48.876;8.962;2022-10-19T05:23:38;130.57;;;32.70;;
10471;SDS011;5283;48.876;8.962;2022-10-19T05:26:07;101.43;;;30.77;;
10471;SDS011;5283;48.876;8.962;2022-10-19T05:28:36;103.90;;;30.50;;
10471;SDS011;5283;48.876;8.962;2022-10-19T05:33:43;163.10;;;33.17;;
10471;SDS011;5283;48.876;8.962;2022-10-19T05:36:20;148.43;;;32.57;;
10471;SDS011;5283;48.876;8.962;2022-10-19T05:38:55;114.50;;;31.37;;
10471;SDS011;5283;48.876;8.962;2022-10-19T05:41:23;116.13;;;31.77;;
10471;SDS011;5283;48.876;8.962;2022-10-19T05:43:51;115.30;;;31.43;;
10471;SDS011;5283;48.876;8.962;2022-10-19T05:46:20;125.93;;;33.93;;
10471;SDS011;5283;48.876;8.962;2022-10-19T05:48:47;149.77;;;35.27;;
10471;SDS011;5283;48.876;8.962;2022-10-19T05:51:15;145.47;;;36.27;;
10471;SDS011;5283;48.876;8.962;2022-10-19T05:53:43;142.67;;;36.70;;
10471;SDS011;5283;48.876;8.962;2022-10-19T05:56:14;175.90;;;37.23;;
10471;SDS011;5283;48.876;8.962;2022-10-19T05:58:44;193.67;;;37.87;;
10471;SDS011;5283;48.876;8.962;2022-10-19T06:01:12;120.77;;;33.80;;
10471;SDS011;5283;48.876;8.962;2022-10-19T06:03:39;123.50;;;33.53;;
10471;SDS011;5283;48.876;8.962;2022-10-19T06:06:07;105.70;;;30.63;;
10471;SDS011;5283;48.876;8.962;2022-10-19T06:08:34;93.97;;;30.63;;
10471;SDS011;5283;48.876;8.962;2022-10-19T06:11:12;121.73;;;34.17;;
10471;SDS011;5283;48.876;8.962;2022-10-19T06:13:47;150.43;;;38.17;;
10471;SDS011;5283;48.876;8.962;2022-10-19T06:16:16;127.67;;;37.30;;
10471;SDS011;5283;48.876;8.962;2022-10-19T06:18:44;154.17;;;35.50;;
10471;SDS011;5283;48.876;8.962;2022-10-19T06:21:21;95.33;;;33.40;;
10471;SDS011;5283;48.876;8.962;2022-10-19T06:23:53;83.60;;;32.63;;
10471;SDS011;5283;48.876;8.962;2022-10-19T06:26:22;65.47;;;30.53;;
10471;SDS011;5283;48.876;8.962;2022-10-19T06:28:49;68.57;;;30.63;;
10471;SDS011;5283;48.876;8.962;2022-10-19T06:31:17;57.00;;;30.03;;
10471;SDS011;5283;48.876;8.962;2022-10-19T06:33:44;59.07;;;30.63;;
10471;SDS011;5283;48.876;8.962;2022-10-19T06:36:14;57.20;;;29.70;;
10471;SDS011;5283;48.876;8.962;2022-10-19T06:38:52;57.73;;;29.87;;
10471;SDS011;5283;48.876;8.962;2022-10-19T06:41:19;54.07;;;30.33;;
10471;SDS011;5283;48.876;8.962;2022-10-19T06:43:53;53.93;;;29.40;;
10471;SDS011;5283;48.876;8.962;2022-10-19T06:46:21;51.73;;;28.53;;
10471;SDS011;5283;48.876;8.962;2022-10-19T06:48:50;48.87;;;29.00;;
10471;SDS011;5283;48.876;8.962;2022-10-19T06:51:27;47.53;;;28.00;;
10471;SDS011;5283;48.876;8.962;2022-10-19T06:53:55;53.77;;;29.63;;
10471;SDS011;5283;48.876;8.962;2022-10-19T06:56:22;48.00;;;29.00;;
10471;SDS011;5283;48.876;8.962;2022-10-19T06:58:50;47.93;;;29.30;;
10471;SDS011;5283;48.876;8.962;2022-10-19T07:01:17;43.33;;;26.90;;
10471;SDS011;5283;48.876;8.962;2022-10-19T07:03:44;37.53;;;27.00;;
10471;SDS011;5283;48.876;8.962;2022-10-19T07:06:11;38.90;;;26.60;;
10471;SDS011;5283;48.876;8.962;2022-10-19T07:08:39;39.70;;;25.83;;
10471;SDS011;5283;48.876;8.962;2022-10-19T07:11:08;35.43;;;24.40;;
10471;SDS011;5283;48.876;8.962;2022-10-19T07:13:37;35.63;;;23.77;;
10471;SDS011;5283;48.876;8.962;2022-10-19T07:16:05;26.90;;;22.03;;
10471;SDS011;5283;48.876;8.962;2022-10-19T07:18:34;30.43;;;21.50;;
10471;SDS011;5283;48.876;8.962;2022-10-19T07:21:02;27.00;;;22.27;;
10471;SDS011;5283;48.876;8.962;2022-10-19T07:23:31;28.20;;;21.57;;
10471;SDS011;5283;48.876;8.962;2022-10-19T07:26:03;23.73;;;20.53;;
10471;SDS011;5283;48.876;8.962;2022-10-19T07:28:31;25.00;;;21.23;;
10471;SDS011;5283;48.876;8.962;2022-10-19T07:30:58;25.33;;;21.27;;
10471;SDS011;5283;48.876;8.962;2022-10-19T07:33:29;29.67;;;21.60;;
10471;SDS011;5283;48.876;8.962;2022-10-19T07:35:59;27.43;;;20.03;;
10471;SDS011;5283;48.876;8.962;2022-10-19T07:38:27;30.50;;;23.03;;
10471;SDS011;5283;48.876;8.962;2022-10-19T07:41:03;24.37;;;19.37;;
10471;SDS011;5283;48.876;8.962;2022-10-19T07:43:32;26.20;;;19.67;;
10471;SDS011;5283;48.876;8.962;2022-10-19T07:46:00;21.57;;;19.30;;
10471;SDS011;5283;48.876;8.962;2022-10-19T07:48:28;25.20;;;19.37;;
10471;SDS011;5283;48.876;8.962;2022-10-19T07:50:55;24.37;;;19.27;;
10471;SDS011;5283;48.876;8.962;2022-10-19T07:53:22;24.80;;;19.03;;
10471;SDS011;5283;48.876;8.962;2022-10-19T07:55:49;20.23;;;17.00;;
10471;SDS011;5283;48.876;8.962;2022-10-19T07:58:16;20.67;;;16.70;;
10471;SDS011;5283;48.876;8.962;2022-10-19T08:00:42;19.50;;;16.73;;
10471;SDS011;5283;48.876;8.962;2022-10-19T08:03:09;19.60;;;15.73;;
10471;SDS011;5283;48.876;8.962;2022-10-19T08:06:00;16.17;;;14.47;;
10471;SDS011;5283;48.876;8.962;2022-10-19T08:08:27;17.03;;;14.63;;
10471;SDS011;5283;48.876;8.962;2022-10-19T08:10:54;17.80;;;14.33;;
10471;SDS011;5283;48.876;8.962;2022-10-19T08:13:21;16.40;;;14.70;;
10471;SDS011;5283;48.876;8.962;2022-10-19T08:15:48;16.43;;;14.83;;
10471;SDS011;5283;48.876;8.962;2022-10-19T08:18:15;16.10;;;14.37;;
10471;SDS011;5283;48.876;8.962;2022-10-19T08:20:43;15.27;;;13.63;;
10471;SDS011;5283;48.876;8.962;2022-10-19T08:23:10;15.13;;;13.50;;
10471;SDS011;5283;48.876;8.962;2022-10-19T08:25:36;16.10;;;12.93;;
10471;SDS011;5283;48.876;8.962;2022-10-19T08:28:03;14.40;;;13.03;;
10471;SDS011;5283;48.876;8.962;2022-10-19T08:30:29;13.87;;;12.40;;
10471;SDS011;5283;48.876;8.962;2022-10-19T08:32:56;14.30;;;12.83;;
10471;SDS011;5283;48.876;8.962;2022-10-19T08:35:23;14.03;;;12.33;;
10471;SDS011;5283;48.876;8.962;2022-10-19T08:37:49;13.37;;;12.00;;
10471;SDS011;5283;48.876;8.962;2022-10-19T08:40:18;12.70;;;11.60;;
10471;SDS011;5283;48.876;8.962;2022-10-19T08:42:49;13.93;;;10.63;;
10471;SDS011;5283;48.876;8.962;2022-10-19T08:45:36;11.77;;;10.67;;
10471;SDS011;5283;48.876;8.962;2022-10-19T08:48:27;12.43;;;11.10;;
10471;SDS011;5283;48.876;8.962;2022-10-19T08:50:57;13.77;;;11.57;;
10471;SDS011;5283;48.876;8.962;2022-10-19T08:53:35;12.17;;;10.97;;
10471;SDS011;5283;48.876;8.962;2022-10-19T08:56:23;11.70;;;10.60;;
10471;SDS011;5283;48.876;8.962;2022-10-19T08:59:20;12.40;;;11.20;;
10471;SDS011;5283;48.876;8.962;2022-10-19T09:02:03;11.97;;;10.97;;
10471;SDS011;5283;48.876;8.962;2022-10-19T09:04:41;12.67;;;11.57;;
10471;SDS011;5283;48.876;8.962;2022-10-19T09:07:29;11.77;;;10.67;;
10471;SDS011;5283;48.876;8.962;2022-10-19T09:12:47;14.97;;;11.60;;
10471;SDS011;5283;48.876;8.962;2022-10-19T09:15:18;11.63;;;10.57;;
10471;SDS011;5283;48.876;8.962;2022-10-19T09:17:50;12.70;;;11.37;;
10471;SDS011;5283;48.876;8.962;2022-10-19T09:22:45;11.80;;;10.77;;
10471;SDS011;5283;48.876;8.962;2022-10-19T09:25:19;12.73;;;11.47;;
10471;SDS011;5283;48.876;8.962;2022-10-19T09:27:51;13.03;;;10.97;;
10471;SDS011;5283;48.876;8.962;2022-10-19T09:30:30;12.60;;;11.40;;
10471;SDS011;5283;48.876;8.962;2022-10-19T09:33:02;12.03;;;10.83;;
10471;SDS011;5283;48.876;8.962;2022-10-19T09:35:32;11.70;;;10.60;;
10471;SDS011;5283;48.876;8.962;2022-10-19T09:38:03;14.60;;;10.97;;
10471;SDS011;5283;48.876;8.962;2022-10-19T09:40:33;12.67;;;11.50;;
10471;SDS011;5283;48.876;8.962;2022-10-19T09:43:00;13.30;;;11.37;;
10471;SDS011;5283;48.876;8.962;2022-10-19T09:48:22;12.07;;;10.90;;
10471;SDS011;5283;48.876;8.962;2022-10-19T09:51:10;11.57;;;10.57;;
10471;SDS011;5283;48.876;8.962;2022-10-19T09:54:00;12.57;;;9.93;;
10471;SDS011;5283;48.876;8.962;2022-10-19T09:56:26;11.80;;;9.90;;
10471;SDS011;5283;48.876;8.962;2022-10-19T09:58:54;10.70;;;9.70;;
10471;SDS011;5283;48.876;8.962;2022-10-19T10:04:04;11.00;;;10.00;;
10471;SDS011;5283;48.876;8.962;2022-10-19T10:06:42;11.77;;;10.57;;
10471;SDS011;5283;48.876;8.962;2022-10-19T10:09:16;10.60;;;9.47;;
10471;SDS011;5283;48.876;8.962;2022-10-19T10:11:47;12.13;;;9.80;;
10471;SDS011;5283;48.876;8.962;2022-10-19T10:14:20;10.97;;;9.87;;
10471;SDS011;5283;48.876;8.962;2022-10-19T10:16:56;11.50;;;10.30;;
10471;SDS011;5283;48.876;8.962;2022-10-19T10:22:29;10.77;;;9.33;;
10471;SDS011;5283;48.876;8.962;2022-10-19T10:24:59;11.10;;;10.00;;
10471;SDS011;5283;48.876;8.962;2022-10-19T10:30:04;9.13;;;7.90;;
10471;SDS011;5283;48.876;8.962;2022-10-19T10:32:37;10.73;;;7.80;;
10471;SDS011;5283;48.876;8.962;2022-10-19T10:35:26;7.67;;;6.63;;
10471;SDS011;5283;48.876;8.962;2022-10-19T10:37:53;7.53;;;5.97;;
10471;SDS011;5283;48.876;8.962;2022-10-19T10:40:33;7.27;;;6.57;;
10471;SDS011;5283;48.876;8.962;2022-10-19T10:43:02;6.23;;;5.43;;
10471;SDS011;5283;48.876;8.962;2022-10-19T10:45:35;5.93;;;5.37;;
10471;SDS011;5283;48.876;8.962;2022-10-19T10:48:23;5.47;;;4.97;;
10471;SDS011;5283;48.876;8.962;2022-10-19T10:50:56;4.47;;;4.10;;
10471;SDS011;5283;48.876;8.962;2022-10-19T10:56:02;5.80;;;4.30;;
10471;SDS011;5283;48.876;8.962;2022-10-19T10:58:33;4.50;;;4.07;;
10471;SDS011;5283;48.876;8.962;2022-10-19T11:01:02;5.20;;;4.10;;
10471;SDS011;5283;48.876;8.962;2022-10-19T11:03:32;3.97;;;3.33;;
10471;SDS011;5283;48.876;8.962;2022-10-19T11:06:02;3.77;;;3.47;;
10471;SDS011;5283;48.876;8.962;2022-10-19T11:08:41;3.80;;;3.37;;
10471;SDS011;5283;48.876;8.962;2022-10-19T11:11:38;3.50;;;3.23;;
10471;SDS011;5283;48.876;8.962;2022-10-19T11:17:11;2.90;;;2.70;;
10471;SDS011;5283;48.876;8.962;2022-10-19T11:19:46;3.00;;;2.80;;
10471;SDS011;5283;48.876;8.962;2022-10-19T11:22:34;3.03;;;2.30;;
10471;SDS011;5283;48.876;8.962;2022-10-19T11:33:35;2.83;;;2.63;;
10471;SDS011;5283;48.876;8.962;2022-10-19T11:47:28;4.23;;;2.87;;
10471;SDS011;5283;48.876;8.962;2022-10-19T11:50:08;3.20;;;2.90;;
10471;SDS011;5283;48.876;8.962;2022-10-19T11:53:04;3.43;;;2.53;;
10471;SDS011;5283;48.876;8.962;2022-10-19T12:06:35;2.80;;;2.60;;
10471;SDS011;5283;48.876;8.962;2022-10-19T12:17:45;4.30;;;2.40;;
10471;SDS011;5283;48.876;8.962;2022-10-19T12:20:15;5.37;;;2.60;;
10471;SDS011;5283;48.876;8.962;2022-10-19T12:22:50;3.07;;;2.77;;
10471;SDS011;5283;48.876;8.962;2022-10-19T12:25:18;2.70;;;2.50;;
10471;SDS011;5283;48.876;8.962;2022-10-19T12:27:46;2.67;;;2.40;;
10471;SDS011;5283;48.876;8.962;2022-10-19T12:30:21;2.57;;;2.37;;
10471;SDS011;5283;48.876;8.962;2022-10-19T12:35:25;4.50;;;2.50;;
10471;SDS011;5283;48.876;8.962;2022-10-19T12:37:54;4.87;;;2.60;;
10471;SDS011;5283;48.876;8.962;2022-10-19T12:41:05;2.60;;;2.40;;
10471;SDS011;5283;48.876;8.962;2022-10-19T12:43:37;3.40;;;2.40;;
10471;SDS011;5283;48.876;8.962;2022-10-19T12:46:13;3.13;;;2.63;;
10471;SDS011;5283;48.876;8.962;2022-10-19T12:51:52;4.13;;;2.60;;
10471;SDS011;5283;48.876;8.962;2022-10-19T12:54:21;5.47;;;2.60;;
10471;SDS011;5283;48.876;8.962;2022-10-19T12:56:51;2.70;;;2.50;;
10471;SDS011;5283;48.876;8.962;2022-10-19T12:59:27;6.70;;;3.10;;
10471;SDS011;5283;48.876;8.962;2022-10-19T13:01:59;3.00;;;2.80;;
10471;SDS011;5283;48.876;8.962;2022-10-19T13:04:29;5.27;;;2.70;;
10471;SDS011;5283;48.876;8.962;2022-10-19T13:07:02;2.70;;;2.50;;
10471;SDS011;5283;48.876;8.962;2022-10-19T13:09:40;2.70;;;2.47;;
10471;SDS011;5283;48.876;8.962;2022-10-19T13:27:42;2.80;;;2.60;;
10471;SDS011;5283;48.876;8.962;2022-10-19T13:30:57;3.07;;;2.70;;
10471;SDS011;5283;48.876;8.962;2022-10-19T13:38:34;3.00;;;2.33;;
10471;SDS011;5283;48.876;8.962;2022-10-19T13:41:16;3.87;;;3.03;;
10471;SDS011;5283;48.876;8.962;2022-10-19T13:49:35;5.03;;;3.07;;
10471;SDS011;5283;48.876;8.962;2022-10-19T13:52:31;4.83;;;3.30;;
10471;SDS011;5283;48.876;8.962;2022-10-19T13:55:27;5.40;;;3.27;;
10471;SDS011;5283;48.876;8.962;2022-10-19T14:00:48;2.83;;;2.43;;
10471;SDS011;5283;48.876;8.962;2022-10-19T14:06:41;3.37;;;3.07;;
10471;SDS011;5283;48.876;8.962;2022-10-19T14:11:50;3.50;;;2.70;;
10471;SDS011;5283;48.876;8.962;2022-10-19T14:14:20;3.57;;;2.80;;
10471;SDS011;5283;48.876;8.962;2022-10-19T14:16:51;3.23;;;2.63;;
10471;SDS011;5283;48.876;8.962;2022-10-19T14:19:30;3.10;;;2.80;;
10471;SDS011;5283;48.876;8.962;2022-10-19T14:22:00;3.20;;;3.00;;
10471;SDS011;5283;48.876;8.962;2022-10-19T14:24:42;3.00;;;2.80;;
10471;SDS011;5283;48.876;8.962;2022-10-19T14:27:10;4.03;;;3.00;;
10471;SDS011;5283;48.876;8.962;2022-10-19T14:29:47;3.37;;;3.07;;
10471;SDS011;5283;48.876;8.962;2022-10-19T14:32:16;3.47;;;3.00;;
10471;SDS011;5283;48.876;8.962;2022-10-19T14:34:46;3.20;;;2.90;;
10471;SDS011;5283;48.876;8.962;2022-10-19T14:37:24;3.10;;;2.50;;
10471;SDS011;5283;48.876;8.962;2022-10-19T14:39:59;4.13;;;2.93;;
10471;SDS011;5283;48.876;8.962;2022-10-19T14:42:47;4.63;;;2.93;;
10471;SDS011;5283;48.876;8.962;2022-10-19T14:45:18;3.30;;;3.00;;
10471;SDS011;5283;48.876;8.962;2022-10-19T15:04:32;2.70;;;2.50;;
10471;SDS011;5283;48.876;8.962;2022-10-19T15:07:03;3.43;;;2.50;;
10471;SDS011;5283;48.876;8.962;2022-10-19T15:09:41;2.57;;;2.37;;
10471;SDS011;5283;48.876;8.962;2022-10-19T15:12:15;3.00;;;2.40;;
10471;SDS011;5283;48.876;8.962;2022-10-19T15:14:44;2.47;;;2.30;;
10471;SDS011;5283;48.876;8.962;2022-10-19T15:17:26;4.40;;;2.30;;
10471;SDS011;5283;48.876;8.962;2022-10-19T15:19:55;5.00;;;3.30;;
10471;SDS011;5283;48.876;8.962;2022-10-19T15:27:35;2.60;;;2.37;;
10471;SDS011;5283;48.876;8.962;2022-10-19T15:35:27;7.03;;;6.03;;
10471;SDS011;5283;48.876;8.962;2022-10-19T15:38:11;6.13;;;4.60;;
10471;SDS011;5283;48.876;8.962;2022-10-19T15:41:00;3.80;;;3.40;;
10471;SDS011;5283;48.876;8.962;2022-10-19T15:45:58;3.77;;;3.30;;
10471;SDS011;5283;48.876;8.962;2022-10-19T15:53:58;3.67;;;3.30;;
10471;SDS011;5283;48.876;8.962;2022-10-19T15:56:26;4.77;;;3.23;;
10471;SDS011;5283;48.876;8.962;2022-10-19T15:58:58;3.93;;;3.63;;
10471;SDS011;5283;48.876;8.962;2022-10-19T16:01:26;11.53;;;3.47;;
10471;SDS011;5283;48.876;8.962;2022-10-19T16:03:56;4.00;;;3.47;;
10471;SDS011;5283;48.876;8.962;2022-10-19T16:06:23;4.77;;;3.57;;
10471;SDS011;5283;48.876;8.962;2022-10-19T16:08:53;4.20;;;3.80;;
10471;SDS011;5283;48.876;8.962;2022-10-19T16:11:20;5.63;;;3.67;;
10471;SDS011;5283;48.876;8.962;2022-10-19T16:13:48;4.27;;;3.87;;
10471;SDS011;5283;48.876;8.962;2022-10-19T16:16:18;4.17;;;3.77;;
10471;SDS011;5283;48.876;8.962;2022-10-19T16:18:50;5.13;;;4.20;;
10471;SDS011;5283;48.876;8.962;2022-10-19T16:21:18;5.40;;;4.30;;
10471;SDS011;5283;48.876;8.962;2022-10-19T16:23:47;5.30;;;3.80;;
10471;SDS011;5283;48.876;8.962;2022-10-19T16:26:14;4.00;;;3.70;;
10471;SDS011;5283;48.876;8.962;2022-10-19T16:28:43;5.23;;;4.30;;
10471;SDS011;5283;48.876;8.962;2022-10-19T16:31:10;4.87;;;3.93;;
10471;SDS011;5283;48.876;8.962;2022-10-19T16:33:37;9.90;;;4.60;;
10471;SDS011;5283;48.876;8.962;2022-10-19T16:36:04;8.87;;;4.17;;
10471;SDS011;5283;48.876;8.962;2022-10-19T16:38:32;4.43;;;4.03;;
10471;SDS011;5283;48.876;8.962;2022-10-19T16:41:02;9.27;;;4.57;;
10471;SDS011;5283;48.876;8.962;2022-10-19T16:43:31;5.00;;;4.60;;
10471;SDS011;5283;48.876;8.962;2022-10-19T16:45:58;5.10;;;4.07;;
10471;SDS011;5283;48.876;8.962;2022-10-19T16:48:25;11.17;;;4.67;;
10471;SDS011;5283;48.876;8.962;2022-10-19T16:53:32;4.30;;;3.90;;
10471;SDS011;5283;48.876;8.962;2022-10-19T16:56:03;8.60;;;4.33;;
10471;SDS011;5283;48.876;8.962;2022-10-19T16:58:34;4.60;;;4.20;;
10471;SDS011;5283;48.876;8.962;2022-10-19T17:01:09;7.23;;;4.57;;
10471;SDS011;5283;48.876;8.962;2022-10-19T17:03:37;5.33;;;4.60;;
10471;SDS011;5283;48.876;8.962;2022-10-19T17:06:04;6.27;;;4.67;;
10471;SDS011;5283;48.876;8.962;2022-10-19T17:08:32;7.33;;;5.00;;
10471;SDS011;5283;48.876;8.962;2022-10-19T17:11:16;9.47;;;5.50;;
10471;SDS011;5283;48.876;8.962;2022-10-19T17:13:52;9.43;;;6.63;;
10471;SDS011;5283;48.876;8.962;2022-10-19T17:16:21;7.43;;;6.63;;
10471;SDS011;5283;48.876;8.962;2022-10-19T17:18:48;6.87;;;5.63;;
10471;SDS011;5283;48.876;8.962;2022-10-19T17:21:19;12.70;;;5.20;;
10471;SDS011;5283;48.876;8.962;2022-10-19T17:23:49;7.87;;;5.33;;
10471;SDS011;5283;48.876;8.962;2022-10-19T17:26:17;9.23;;;6.40;;
10471;SDS011;5283;48.876;8.962;2022-10-19T17:28:49;8.57;;;6.93;;
10471;SDS011;5283;48.876;8.962;2022-10-19T17:31:16;13.67;;;7.43;;
10471;SDS011;5283;48.876;8.962;2022-10-19T17:33:42;8.87;;;6.83;;
10471;SDS011;5283;48.876;8.962;2022-10-19T17:36:11;7.87;;;7.03;;
10471;SDS011;5283;48.876;8.962;2022-10-19T17:38:40;8.90;;;7.93;;
10471;SDS011;5283;48.876;8.962;2022-10-19T17:41:08;10.50;;;7.37;;
10471;SDS011;5283;48.876;8.962;2022-10-19T17:43:42;13.13;;;8.13;;
10471;SDS011;5283;48.876;8.962;2022-10-19T17:46:10;10.10;;;8.37;;
10471;SDS011;5283;48.876;8.962;2022-10-19T17:48:39;11.83;;;8.53;;
10471;SDS011;5283;48.876;8.962;2022-10-19T17:51:09;13.33;;;9.27;;
10471;SDS011;5283;48.876;8.962;2022-10-19T17:53:41;10.90;;;8.80;;
10471;SDS011;5283;48.876;8.962;2022-10-19T17:56:10;14.93;;;9.23;;